Harelbeke, Belgium

9:34 PM CEST on July 28, 2016 (GMT +0200)
Lesquin | | Change Station

Elev 154 ft 50.57 °N, 3.10 °E | Updated 4 minutes ago

Overcast
Overcast
63 °F
Feels Like 63 °F
N
6
Wind Variable Wind from West

Today
High -- | Low -- °F
--% Chance of Precip.
Yesterday
High -- | Low -- °F
Precip. -- in
Pressure 29.98 in
Visibility 6.2 miles
Clouds Mostly Cloudy 3700 ft
Overcast 4300 ft
Dew Point 59 °F
Humidity 88%
Rainfall 0.00 in
Snow Depth Not available.
6:07 AM 9:37 PM
Waning Crescent, 29% visible
METAR LFQQ 281930Z AUTO 27005KT 9999 BKN037 OVC043 17/15 Q1015 TEMPO 4000 RA BKN006 BKN013
Pressure 29.98 in
Visibility 6.2 miles
Clouds Mostly Cloudy 3700 ft
Overcast 4300 ft
Dew Point 59 °F
Humidity 88%
Rainfall 0.00 in
Snow Depth Not available.
6:07 AM 9:37 PM
Waning Crescent, 29% visible
METAR LFQQ 281930Z AUTO 27005KT 9999 BKN037 OVC043 17/15 Q1015 TEMPO 4000 RA BKN006 BKN013

10-Day Weather Forecast

×

Almanac

Astronomy

Jul. 28, 2016 Rise Set
Actual Time
Civil Twilight
Nautical Twilight
Astronomical Twilight
Moon
Length of Visible Light
Length of Day
Tomorrow will be .
, % of the Moon is Illuminated

Today's Extremes

Country Highs Country Lows

Community

WunderPhotos

Upload Photos

1,928,193 photos uploaded!

WunderBlog® & News

Nearby

Air Quality

  Air Quality AQ Index Pollutant
Not available.

Snow Depth

Station Depth Elevation

Earthquake Activity

City Distance Mag. Time & Date
Minimum magnitude displayed is 2.5.

Coastal Water Temperatures

Place Temperature

Stations

Nearby Weather Stations

Station Location Temp. Windchill Dew Point Humidity Wind Precip. Elev Updated Type